Accueil
METAR-TAF:

METAR-TAF

Aéroports :

Aéroport de Paksé

Paksé, Laos

latitude: 15-08-02N, longitude: 105-46-55E, altitude: 107 m

Observation

Le bulletin a été fait il y a 1 heure et 4 minutes, à 01:00 UTC
Vent 6 kt de sud-est
Température 27°C
Humidité 89%
Pression 1005 hPa
Visibilité: 8000 m
Nuages fragmentés à une hauteur de 1700 ft
Nuages épars à une hauteur de 5000 ft
à proximité, pluie,

METAR: VLPS 220100Z 14006KT 8000 VCRA BKN017 SCT050 27/25 Q1005 VCRA/SW NOSIG

Heure: 09:04 (02:04 UTC)

Prévision

Le bulletin a été fait il y a 3 heures et 4 minutes, à 23:00 UTC
Prévision valable du 22 à 00 UTC au 22 à 24 UTC
Vent 4 kt de sud-est
Visibilité 10 km ou plus
Quelques nuages à une hauteur de 2000 ft
Nuages épars à une hauteur de 5000 ft

TAF: VLPS 212300Z 2200/2224 14004KT 9999 FEW020 SCT050

Observations et prévisions météorologiques de plus de 4000 aéroports (messages METAR et TAF).

Les stations disponibles sont représentées par des disques jaunes et rouges sur la carte.

Passer la souris dessus pour voir le nom de la station.

Cliquer dessus pour voir les observations et prévisions météorologiques.

Pour changer de carte: cliquez sur les boutons verts avec une croix noire pour zoomer, sur le bouton vert avec un tiret pour effectuer un zoom arrière, ou sur les flèches vertes pour les cartes adjacentes.


METAR-TAF: